Time;durP1;ratioP1;P1;durP2;ratioP2;P2;SDS_P1;SDS_P2;PMS_P1;PMS_P2;Temp;Humidity;BMP_temperature;BMP_pressure;BME280_temperature;BME280_humidity;BME280_pressure;Samples;Min_cycle;Max_cycle;Signal;HPM_P1;HPM_P2
2021/06/04 00:00:10;;;;;;;17.75;13.35;;;;;;;;;;346359;28;1208;-69
2021/06/04 00:00:31;;;;;;;18.20;13.48;;;;;;;;;;344277;28;63641;-71
2021/06/04 00:00:44;;;;;;;18.35;13.65;;;;;;;;;;343542;28;86562;-69
2021/06/04 00:00:56;;;;;;;18.15;13.40;;;;;;;;;;345947;28;17424;-69
2021/06/04 00:01:14;;;;;;;18.63;13.68;;;;;;;;;;345929;28;1058;-69
2021/06/04 00:01:29;;;;;;;17.67;13.80;;;;;;;;;;344328;28;62525;-70
2021/06/04 00:01:42;;;;;;;17.27;13.27;;;;;;;;;;344406;28;63791;-69
2021/06/04 00:01:55;;;;;;;17.13;13.13;;;;;;;;;;346280;28;1269;-68
2021/06/04 00:02:07;;;;;;;16.60;13.00;;;;;;;;;;346454;28;993;-69
2021/06/04 00:02:19;;;;;;;16.02;13.05;;;;;;;;;;346562;28;1228;-68
2021/06/04 00:02:31;;;;;;;16.65;13.73;;;;;;;;;;346563;28;1218;-69
2021/06/04 00:02:44;;;;;;;18.10;13.90;;;;;;;;;;346290;28;1196;-69
2021/06/04 00:02:57;;;;;;;20.35;14.13;;;;;;;;;;346299;28;991;-69
2021/06/04 00:03:12;;;;;;;19.38;13.82;;;;;;;;;;345866;28;17117;-69
2021/06/04 00:03:24;;;;;;;20.17;14.45;;;;;;;;;;345622;28;16064;-70
2021/06/04 00:03:36;;;;;;;20.02;14.52;;;;;;;;;;346168;28;1091;-69
2021/06/04 00:03:49;;;;;;;19.55;14.15;;;;;;;;;;346163;28;1046;-69
2021/06/04 00:04:02;;;;;;;18.17;14.43;;;;;;;;;;346081;28;1063;-69
2021/06/04 00:04:14;;;;;;;17.73;14.45;;;;;;;;;;346301;28;1080;-69
2021/06/04 00:04:26;;;;;;;17.73;14.07;;;;;;;;;;345965;28;1090;-69
2021/06/04 00:04:38;;;;;;;18.40;14.02;;;;;;;;;;346277;28;1157;-69
2021/06/04 00:04:50;;;;;;;19.05;14.85;;;;;;;;;;346043;28;1101;-69
2021/06/04 00:05:03;;;;;;;19.88;15.05;;;;;;;;;;346303;28;1153;-69
2021/06/04 00:05:17;;;;;;;19.30;14.73;;;;;;;;;;346509;28;1090;-69
2021/06/04 00:05:31;;;;;;;18.13;14.68;;;;;;;;;;345769;28;16627;-69
2021/06/04 00:05:45;;;;;;;18.70;14.68;;;;;;;;;;345793;28;16809;-69
2021/06/04 00:05:57;;;;;;;20.20;14.98;;;;;;;;;;345962;28;16679;-69
2021/06/04 00:06:10;;;;;;;19.40;15.05;;;;;;;;;;346453;28;1204;-69
2021/06/04 00:06:23;;;;;;;18.75;14.90;;;;;;;;;;346470;28;1192;-69
2021/06/04 00:06:36;;;;;;;19.10;14.55;;;;;;;;;;345543;28;16029;-70
2021/06/04 00:06:48;;;;;;;21.92;15.00;;;;;;;;;;346240;28;1185;-69
2021/06/04 00:07:01;;;;;;;22.42;15.25;;;;;;;;;;346244;28;1055;-69
2021/06/04 00:07:13;;;;;;;21.33;15.52;;;;;;;;;;346157;28;1079;-69
2021/06/04 00:07:25;;;;;;;21.50;15.40;;;;;;;;;;346091;28;1090;-69
2021/06/04 00:07:39;;;;;;;22.80;15.32;;;;;;;;;;346018;28;1050;-69
2021/06/04 00:07:51;;;;;;;22.52;14.93;;;;;;;;;;345729;28;16108;-69
2021/06/04 00:08:04;;;;;;;21.04;14.68;;;;;;;;;;346120;28;1866;-69
2021/06/04 00:08:17;;;;;;;20.04;14.70;;;;;;;;;;346294;28;1168;-69
2021/06/04 00:08:29;;;;;;;19.42;14.82;;;;;;;;;;345993;28;1152;-69
2021/06/04 00:08:42;;;;;;;19.58;15.05;;;;;;;;;;346395;28;1098;-69
2021/06/04 00:08:55;;;;;;;20.10;15.25;;;;;;;;;;346381;28;1098;-69
2021/06/04 00:09:08;;;;;;;22.08;15.82;;;;;;;;;;346356;28;1104;-69
2021/06/04 00:09:21;;;;;;;22.08;15.98;;;;;;;;;;346363;28;1096;-69
2021/06/04 00:09:33;;;;;;;20.70;15.80;;;;;;;;;;346346;28;1065;-69
2021/06/04 00:09:45;;;;;;;21.65;15.85;;;;;;;;;;346425;28;2006;-69
2021/06/04 00:09:57;;;;;;;22.65;15.70;;;;;;;;;;346282;28;1323;-68
2021/06/04 00:10:12;;;;;;;21.25;15.43;;;;;;;;;;346523;28;1065;-69
2021/06/04 00:10:32;;;;;;;19.08;15.38;;;;;;;;;;345128;28;40157;-69
2021/06/04 00:10:50;;;;;;;19.20;15.45;;;;;;;;;;344470;28;63591;-69
2021/06/04 00:11:23;;;;;;;18.85;15.48;;;;;;;;;;344280;28;62582;-69
2021/06/04 00:11:37;;;;;;;19.77;15.70;;;;;;;;;;344127;28;63437;-69
2021/06/04 00:11:55;;;;;;;21.77;15.73;;;;;;;;;;345059;28;40979;-69
2021/06/04 00:12:08;;;;;;;22.30;15.30;;;;;;;;;;344238;28;62543;-69
2021/06/04 00:12:20;;;;;;;21.15;15.73;;;;;;;;;;346266;28;1009;-69
2021/06/04 00:12:32;;;;;;;21.73;15.98;;;;;;;;;;346206;28;1284;-69
2021/06/04 00:12:44;;;;;;;21.50;16.02;;;;;;;;;;346081;28;1145;-70
2021/06/04 00:13:16;;;;;;;21.48;16.05;;;;;;;;;;346261;28;1376;-70
2021/06/04 00:13:40;;;;;;;22.13;16.35;;;;;;;;;;338739;29;63551;-68
2021/06/04 00:13:55;;;;;;;20.33;15.90;;;;;;;;;;343775;28;63529;-69
2021/06/04 00:14:10;;;;;;;20.45;15.65;;;;;;;;;;344028;28;64104;-70
2021/06/04 00:14:30;;;;;;;20.26;15.62;;;;;;;;;;345957;28;16779;-69
2021/06/04 00:14:43;;;;;;;19.88;16.08;;;;;;;;;;344419;28;62828;-68
2021/06/04 00:14:58;;;;;;;20.55;16.00;;;;;;;;;;344703;28;40169;-69
2021/06/04 00:15:16;;;;;;;20.45;16.13;;;;;;;;;;346112;28;1063;-69
2021/06/04 00:15:28;;;;;;;21.75;16.70;;;;;;;;;;344204;28;63659;-71
2021/06/04 00:15:40;;;;;;;23.15;16.52;;;;;;;;;;346302;28;2022;-70
2021/06/04 00:16:11;;;;;;;21.63;15.95;;;;;;;;;;346156;28;946;-70
2021/06/04 00:16:27;;;;;;;20.95;16.33;;;;;;;;;;344184;28;62601;-68
2021/06/04 00:16:51;;;;;;;22.35;16.50;;;;;;;;;;344093;28;63990;-69
2021/06/04 00:17:06;;;;;;;22.77;15.98;;;;;;;;;;344021;28;62681;-69
2021/06/04 00:17:20;;;;;;;21.27;16.30;;;;;;;;;;344979;28;41045;-70
2021/06/04 00:17:32;;;;;;;21.92;16.95;;;;;;;;;;344881;28;40120;-71
2021/06/04 00:17:44;;;;;;;22.25;16.80;;;;;;;;;;346228;28;1906;-68
2021/06/04 00:17:56;;;;;;;23.08;16.38;;;;;;;;;;346161;28;1132;-70
2021/06/04 00:18:09;;;;;;;22.52;16.27;;;;;;;;;;346382;28;1067;-69
2021/06/04 00:18:21;;;;;;;24.38;16.88;;;;;;;;;;346325;28;1169;-69
2021/06/04 00:18:34;;;;;;;23.25;16.60;;;;;;;;;;346367;28;1191;-69
2021/06/04 00:18:48;;;;;;;22.40;16.60;;;;;;;;;;346169;28;1055;-69
2021/06/04 00:19:03;;;;;;;21.13;16.88;;;;;;;;;;345596;28;16680;-69
2021/06/04 00:19:16;;;;;;;21.58;17.23;;;;;;;;;;344972;28;40080;-69
2021/06/04 00:19:31;;;;;;;22.48;16.73;;;;;;;;;;345237;28;40795;-69
2021/06/04 00:19:43;;;;;;;24.20;17.25;;;;;;;;;;346217;28;1112;-69
2021/06/04 00:19:55;;;;;;;23.82;17.74;;;;;;;;;;346507;28;1090;-68
2021/06/04 00:20:12;;;;;;;22.20;16.88;;;;;;;;;;346531;28;1069;-67
2021/06/04 00:20:25;;;;;;;22.17;16.75;;;;;;;;;;344352;28;64048;-68
2021/06/04 00:20:37;;;;;;;23.98;17.02;;;;;;;;;;345855;28;17239;-68
2021/06/04 00:20:50;;;;;;;22.80;16.77;;;;;;;;;;346564;28;987;-68
2021/06/04 00:21:03;;;;;;;20.08;16.48;;;;;;;;;;346436;28;1093;-68
2021/06/04 00:21:16;;;;;;;20.15;16.15;;;;;;;;;;346390;28;1022;-68
2021/06/04 00:21:31;;;;;;;20.98;16.50;;;;;;;;;;345829;28;16039;-68
2021/06/04 00:21:48;;;;;;;20.27;16.30;;;;;;;;;;345693;28;18065;-68
2021/06/04 00:22:03;;;;;;;21.00;17.00;;;;;;;;;;343573;28;86891;-67
2021/06/04 00:22:18;;;;;;;23.20;17.80;;;;;;;;;;344339;28;64081;-68
2021/06/04 00:22:30;;;;;;;22.38;17.65;;;;;;;;;;345044;28;40906;-68
2021/06/04 00:22:42;;;;;;;21.92;16.98;;;;;;;;;;346392;28;1062;-69
2021/06/04 00:22:54;;;;;;;22.15;16.88;;;;;;;;;;346360;28;1216;-68
2021/06/04 00:23:08;;;;;;;23.38;17.52;;;;;;;;;;346508;28;1254;-67
2021/06/04 00:23:20;;;;;;;21.88;17.25;;;;;;;;;;346373;28;1154;-67
2021/06/04 00:23:32;;;;;;;22.67;17.65;;;;;;;;;;346269;28;1142;-70
2021/06/04 00:23:44;;;;;;;23.70;17.63;;;;;;;;;;346522;28;1948;-70
2021/06/04 00:23:58;;;;;;;22.70;17.23;;;;;;;;;;346421;28;1114;-70
2021/06/04 00:24:11;;;;;;;21.58;17.05;;;;;;;;;;345969;28;16112;-69
2021/06/04 00:24:24;;;;;;;22.58;17.20;;;;;;;;;;346370;28;1313;-68
2021/06/04 00:24:37;;;;;;;22.08;17.33;;;;;;;;;;346392;28;1098;-70
2021/06/04 00:24:51;;;;;;;22.52;17.25;;;;;;;;;;345778;28;17302;-69
2021/06/04 00:25:03;;;;;;;23.88;16.90;;;;;;;;;;345665;28;17099;-69
2021/06/04 00:25:16;;;;;;;24.23;17.17;;;;;;;;;;346260;28;1161;-68
2021/06/04 00:25:28;;;;;;;23.85;17.23;;;;;;;;;;345974;28;1094;-69
2021/06/04 00:25:40;;;;;;;23.95;17.75;;;;;;;;;;346258;28;1388;-69
2021/06/04 00:25:52;;;;;;;23.85;18.02;;;;;;;;;;346366;28;1054;-69
2021/06/04 00:26:05;;;;;;;23.35;17.92;;;;;;;;;;346217;28;1084;-69
2021/06/04 00:26:17;;;;;;;23.63;17.77;;;;;;;;;;346123;28;1199;-69
2021/06/04 00:26:31;;;;;;;26.08;17.90;;;;;;;;;;346186;28;1018;-69
2021/06/04 00:26:45;;;;;;;25.52;17.75;;;;;;;;;;345508;28;1098;-69
2021/06/04 00:26:57;;;;;;;23.15;17.88;;;;;;;;;;345452;28;17328;-69
2021/06/04 00:27:10;;;;;;;23.00;18.27;;;;;;;;;;346141;28;1113;-69
2021/06/04 00:27:23;;;;;;;22.83;18.67;;;;;;;;;;346254;28;1379;-69
2021/06/04 00:27:35;;;;;;;23.77;18.30;;;;;;;;;;346182;28;1208;-69
2021/06/04 00:27:47;;;;;;;24.25;17.77;;;;;;;;;;346420;28;1083;-70
2021/06/04 00:27:59;;;;;;;22.88;17.30;;;;;;;;;;346051;28;1094;-69
2021/06/04 00:28:12;;;;;;;23.02;17.80;;;;;;;;;;347630;28;1094;-69
2021/06/04 00:28:24;;;;;;;23.92;18.24;;;;;;;;;;347558;28;1073;-68
2021/06/04 00:28:37;;;;;;;24.58;18.65;;;;;;;;;;347780;28;1098;-69
2021/06/04 00:28:49;;;;;;;24.48;18.75;;;;;;;;;;347725;28;1173;-69
2021/06/04 00:29:01;;;;;;;24.80;18.65;;;;;;;;;;347537;28;1180;-69
2021/06/04 00:29:14;;;;;;;23.65;18.13;;;;;;;;;;347486;28;1126;-69
2021/06/04 00:29:26;;;;;;;24.38;18.40;;;;;;;;;;347545;28;1094;-69
2021/06/04 00:29:39;;;;;;;24.85;18.50;;;;;;;;;;347696;28;1185;-69
2021/06/04 00:29:52;;;;;;;25.25;18.10;;;;;;;;;;347511;28;1059;-69
2021/06/04 00:30:06;;;;;;;22.77;17.48;;;;;;;;;;346034;28;1105;-69
2021/06/04 00:30:19;;;;;;;23.50;17.80;;;;;;;;;;344995;28;39988;-69
2021/06/04 00:30:31;;;;;;;24.88;18.48;;;;;;;;;;346218;28;1168;-69
2021/06/04 00:30:43;;;;;;;24.35;18.45;;;;;;;;;;346180;28;1110;-69
2021/06/04 00:30:57;;;;;;;24.73;18.38;;;;;;;;;;346120;28;1134;-69
2021/06/04 00:31:09;;;;;;;24.77;18.55;;;;;;;;;;345656;28;16131;-69
2021/06/04 00:31:22;;;;;;;24.08;18.92;;;;;;;;;;346254;28;1173;-70
2021/06/04 00:31:34;;;;;;;22.98;18.67;;;;;;;;;;346127;28;1296;-70
2021/06/04 00:31:47;;;;;;;24.05;18.52;;;;;;;;;;346151;28;1190;-69
2021/06/04 00:31:59;;;;;;;24.05;18.05;;;;;;;;;;345951;28;1049;-69
2021/06/04 00:32:13;;;;;;;22.55;17.92;;;;;;;;;;346351;28;985;-69
2021/06/04 00:32:26;;;;;;;22.77;18.10;;;;;;;;;;345985;28;16671;-69
2021/06/04 00:32:38;;;;;;;24.27;18.40;;;;;;;;;;346419;28;1060;-69
2021/06/04 00:32:50;;;;;;;23.85;18.52;;;;;;;;;;346362;28;1185;-69
2021/06/04 00:33:03;;;;;;;23.33;18.27;;;;;;;;;;346284;28;1102;-69
2021/06/04 00:33:15;;;;;;;23.75;18.58;;;;;;;;;;345792;28;17303;-69
2021/06/04 00:33:28;;;;;;;24.67;18.83;;;;;;;;;;346500;28;1093;-69
2021/06/04 00:33:42;;;;;;;25.23;18.38;;;;;;;;;;346341;28;1193;-69
2021/06/04 00:33:54;;;;;;;26.75;19.20;;;;;;;;;;345710;28;16746;-69
2021/06/04 00:34:07;;;;;;;27.13;19.77;;;;;;;;;;346545;28;1152;-68
2021/06/04 00:34:20;;;;;;;26.67;19.23;;;;;;;;;;346013;28;1049;-68
2021/06/04 00:34:32;;;;;;;26.02;19.25;;;;;;;;;;346227;28;1113;-68
2021/06/04 00:34:44;;;;;;;25.10;19.05;;;;;;;;;;346160;28;1080;-69
2021/06/04 00:34:56;;;;;;;23.75;18.90;;;;;;;;;;345976;28;1034;-69
2021/06/04 00:35:09;;;;;;;24.42;19.00;;;;;;;;;;346299;28;983;-69
2021/06/04 00:35:22;;;;;;;23.83;18.73;;;;;;;;;;346172;28;1066;-69
2021/06/04 00:35:36;;;;;;;25.25;19.10;;;;;;;;;;346062;28;1002;-69
2021/06/04 00:35:48;;;;;;;24.65;19.10;;;;;;;;;;345589;28;16629;-69
2021/06/04 00:36:01;;;;;;;24.38;19.20;;;;;;;;;;346249;28;1157;-69
2021/06/04 00:36:13;;;;;;;23.90;19.23;;;;;;;;;;346216;28;1007;-69
2021/06/04 00:36:25;;;;;;;25.33;19.33;;;;;;;;;;346299;28;1070;-69
2021/06/04 00:36:37;;;;;;;27.02;19.40;;;;;;;;;;346673;28;1057;-69
2021/06/04 00:36:50;;;;;;;28.55;19.75;;;;;;;;;;346542;28;1077;-69
2021/06/04 00:37:03;;;;;;;28.63;20.17;;;;;;;;;;346345;28;1013;-69
2021/06/04 00:37:15;;;;;;;27.08;19.85;;;;;;;;;;346420;28;1112;-70
2021/06/04 00:37:27;;;;;;;25.17;19.70;;;;;;;;;;346248;28;1125;-69
2021/06/04 00:37:39;;;;;;;25.73;20.15;;;;;;;;;;346309;28;1078;-70
2021/06/04 00:37:52;;;;;;;24.98;19.60;;;;;;;;;;346575;28;1026;-69
2021/06/04 00:38:05;;;;;;;25.35;19.35;;;;;;;;;;346335;28;1035;-69
2021/06/04 00:38:18;;;;;;;25.73;19.40;;;;;;;;;;346164;28;1018;-70
2021/06/04 00:38:30;;;;;;;25.10;19.38;;;;;;;;;;346177;28;1074;-69
2021/06/04 00:38:42;;;;;;;23.90;19.02;;;;;;;;;;346189;28;1092;-69
2021/06/04 00:38:55;;;;;;;24.55;19.10;;;;;;;;;;346223;28;1342;-69
2021/06/04 00:39:08;;;;;;;23.67;19.02;;;;;;;;;;346278;28;1125;-69
2021/06/04 00:39:22;;;;;;;24.13;19.25;;;;;;;;;;346093;28;1918;-70
2021/06/04 00:39:36;;;;;;;25.17;19.45;;;;;;;;;;344839;28;39695;-69
2021/06/04 00:39:48;;;;;;;25.23;19.08;;;;;;;;;;346213;28;1267;-70
2021/06/04 00:40:00;;;;;;;25.50;19.38;;;;;;;;;;346088;28;1322;-70
2021/06/04 00:40:15;;;;;;;26.65;19.25;;;;;;;;;;346220;28;1034;-69
2021/06/04 00:40:29;;;;;;;26.65;19.13;;;;;;;;;;344746;28;40958;-69
2021/06/04 00:40:44;;;;;;;24.85;19.23;;;;;;;;;;345766;28;16696;-70
2021/06/04 00:41:00;;;;;;;24.58;19.33;;;;;;;;;;344868;28;40761;-69
2021/06/04 00:41:15;;;;;;;24.58;19.25;;;;;;;;;;345347;28;62651;-70
2021/06/04 00:41:32;;;;;;;23.95;18.85;;;;;;;;;;346183;28;41135;-70
2021/06/04 00:41:47;;;;;;;26.13;19.50;;;;;;;;;;345632;28;63978;-70
2021/06/04 00:42:01;;;;;;;25.73;19.80;;;;;;;;;;346234;28;39748;-70
2021/06/04 00:42:18;;;;;;;25.30;19.27;;;;;;;;;;347201;28;17225;-70
2021/06/04 00:42:33;;;;;;;25.52;19.27;;;;;;;;;;345282;28;63948;-71
2021/06/04 00:42:46;;;;;;;24.50;18.63;;;;;;;;;;344949;28;38900;-70
2021/06/04 00:42:58;;;;;;;25.15;18.95;;;;;;;;;;346159;28;1077;-70
2021/06/04 00:43:10;;;;;;;25.63;19.08;;;;;;;;;;346414;28;1170;-69
2021/06/04 00:43:24;;;;;;;25.70;18.92;;;;;;;;;;346148;28;1165;-69
2021/06/04 00:43:36;;;;;;;25.52;18.80;;;;;;;;;;346033;28;1110;-69
2021/06/04 00:43:48;;;;;;;25.13;19.08;;;;;;;;;;346408;28;1168;-69
2021/06/04 00:44:00;;;;;;;25.90;18.92;;;;;;;;;;344537;28;2110;-69
2021/06/04 00:44:13;;;;;;;24.23;18.73;;;;;;;;;;344916;28;1352;-70
2021/06/04 00:44:26;;;;;;;24.27;18.48;;;;;;;;;;344723;28;1945;-69
2021/06/04 00:44:38;;;;;;;25.20;19.15;;;;;;;;;;344889;28;1105;-70
2021/06/04 00:44:51;;;;;;;25.65;19.35;;;;;;;;;;345878;28;2110;-69
2021/06/04 00:45:05;;;;;;;26.40;19.42;;;;;;;;;;346063;28;1199;-69
2021/06/04 00:45:20;;;;;;;26.25;19.50;;;;;;;;;;345831;28;16637;-70
2021/06/04 00:45:34;;;;;;;22.10;18.85;;;;;;;;;;344942;28;39196;-70
2021/06/04 00:45:48;;;;;;;22.77;18.80;;;;;;;;;;344835;28;39761;-69
2021/06/04 00:46:06;;;;;;;24.25;18.60;;;;;;;;;;346539;28;16695;-70
2021/06/04 00:46:19;;;;;;;24.17;18.05;;;;;;;;;;343968;28;62606;-70
2021/06/04 00:46:32;;;;;;;23.83;18.08;;;;;;;;;;346211;28;1022;-69
2021/06/04 00:46:44;;;;;;;23.58;18.15;;;;;;;;;;345600;28;17325;-70
2021/06/04 00:46:56;;;;;;;24.80;19.02;;;;;;;;;;346248;28;1065;-70
2021/06/04 00:47:09;;;;;;;24.67;18.98;;;;;;;;;;346170;28;1094;-69
2021/06/04 00:47:21;;;;;;;23.45;18.55;;;;;;;;;;346324;28;1070;-69
2021/06/04 00:47:33;;;;;;;24.17;18.45;;;;;;;;;;346076;28;1211;-69
2021/06/04 00:47:45;;;;;;;24.23;18.67;;;;;;;;;;346015;28;1168;-69
2021/06/04 00:47:57;;;;;;;22.65;18.38;;;;;;;;;;346231;28;1222;-69
2021/06/04 00:48:10;;;;;;;23.75;18.80;;;;;;;;;;346299;28;1093;-69
2021/06/04 00:48:23;;;;;;;24.15;19.10;;;;;;;;;;348057;28;1169;-68
2021/06/04 00:48:36;;;;;;;24.92;19.02;;;;;;;;;;347548;28;1094;-69
2021/06/04 00:48:48;;;;;;;23.75;18.88;;;;;;;;;;347586;28;1082;-69
2021/06/04 00:49:01;;;;;;;22.64;18.82;;;;;;;;;;347404;28;1062;-69
2021/06/04 00:49:13;;;;;;;24.23;19.17;;;;;;;;;;347683;28;1121;-71
2021/06/04 00:49:25;;;;;;;26.20;19.90;;;;;;;;;;347744;28;1178;-68
2021/06/04 00:49:37;;;;;;;25.20;19.50;;;;;;;;;;347469;28;1026;-69
2021/06/04 00:49:49;;;;;;;23.92;18.80;;;;;;;;;;347613;28;1180;-69
2021/06/04 00:50:03;;;;;;;22.95;18.73;;;;;;;;;;346187;28;1076;-69
2021/06/04 00:50:19;;;;;;;23.60;19.25;;;;;;;;;;345614;28;17179;-69
2021/06/04 00:50:38;;;;;;;25.15;19.83;;;;;;;;;;344553;28;41352;-69
2021/06/04 00:50:50;;;;;;;26.73;20.20;;;;;;;;;;344165;28;63853;-69
2021/06/04 00:51:14;;;;;;;25.02;19.90;;;;;;;;;;344698;28;1136;-69
2021/06/04 00:51:32;;;;;;;23.63;19.63;;;;;;;;;;342770;28;63317;-69
2021/06/04 00:51:52;;;;;;;25.27;20.15;;;;;;;;;;342673;28;63150;-68
2021/06/04 00:52:08;;;;;;;25.75;20.10;;;;;;;;;;343825;28;63555;-69
2021/06/04 00:52:24;;;;;;;26.45;20.10;;;;;;;;;;343904;28;63114;-69
2021/06/04 00:52:37;;;;;;;28.30;20.33;;;;;;;;;;344023;28;61837;-69
2021/06/04 00:52:49;;;;;;;29.40;20.50;;;;;;;;;;346615;28;981;-71
2021/06/04 00:53:02;;;;;;;29.25;20.45;;;;;;;;;;346161;28;1091;-69
2021/06/04 00:53:15;;;;;;;25.23;19.63;;;;;;;;;;346296;28;1082;-69
2021/06/04 00:53:27;;;;;;;24.75;19.40;;;;;;;;;;346156;28;1168;-69
2021/06/04 00:53:40;;;;;;;24.40;19.48;;;;;;;;;;346179;28;1074;-69
2021/06/04 00:53:53;;;;;;;24.67;19.65;;;;;;;;;;346170;28;1230;-69
2021/06/04 00:54:06;;;;;;;24.95;19.38;;;;;;;;;;345639;28;15993;-69
2021/06/04 00:54:20;;;;;;;24.23;18.77;;;;;;;;;;346171;28;1514;-70
2021/06/04 00:54:32;;;;;;;24.55;18.90;;;;;;;;;;346063;28;987;-69
2021/06/04 00:54:44;;;;;;;25.77;19.58;;;;;;;;;;346235;28;1057;-69
2021/06/04 00:55:00;;;;;;;26.25;19.52;;;;;;;;;;344811;28;1133;-69
2021/06/04 00:55:16;;;;;;;26.98;19.92;;;;;;;;;;343972;28;64048;-69
2021/06/04 00:55:28;;;;;;;26.88;20.20;;;;;;;;;;344059;28;63819;-69
2021/06/04 00:55:41;;;;;;;26.63;19.98;;;;;;;;;;346170;28;1094;-69
2021/06/04 00:55:54;;;;;;;27.42;20.17;;;;;;;;;;346278;28;2244;-69
2021/06/04 00:56:07;;;;;;;25.65;20.40;;;;;;;;;;345747;28;17147;-69
2021/06/04 00:56:20;;;;;;;26.02;20.75;;;;;;;;;;346175;28;1082;-68
2021/06/04 00:56:33;;;;;;;25.52;20.73;;;;;;;;;;346203;28;1212;-69
2021/06/04 00:56:47;;;;;;;24.42;20.38;;;;;;;;;;346324;28;1210;-69
2021/06/04 00:57:00;;;;;;;25.83;20.50;;;;;;;;;;346158;28;39767;-69
2021/06/04 00:57:13;;;;;;;26.58;20.67;;;;;;;;;;347613;28;1108;-69
2021/06/04 00:57:26;;;;;;;26.08;20.60;;;;;;;;;;347730;28;1054;-69
2021/06/04 00:57:38;;;;;;;24.92;20.48;;;;;;;;;;347613;28;1356;-69
2021/06/04 00:57:50;;;;;;;25.25;20.58;;;;;;;;;;347710;28;1169;-70
2021/06/04 00:58:03;;;;;;;23.13;20.33;;;;;;;;;;347508;28;1136;-68
2021/06/04 00:58:18;;;;;;;23.33;20.33;;;;;;;;;;347828;28;1186;-69
2021/06/04 00:58:36;;;;;;;25.27;20.17;;;;;;;;;;344816;28;39683;-70
2021/06/04 00:58:49;;;;;;;25.77;20.45;;;;;;;;;;342897;28;63012;-70
2021/06/04 00:59:02;;;;;;;26.63;20.40;;;;;;;;;;344163;28;15908;-69
2021/06/04 00:59:36;;;;;;;25.67;20.23;;;;;;;;;;343779;28;1121;-69
2021/06/04 00:59:48;;;;;;;25.88;19.67;;;;;;;;;;341503;28;63379;-69
2021/06/04 01:00:02;;;;;;;24.73;19.35;;;;;;;;;;343554;28;1117;-69
2021/06/04 01:00:27;;;;;;;24.10;20.27;;;;;;;;;;343193;28;17067;-69
2021/06/04 01:00:41;;;;;;;25.85;20.45;;;;;;;;;;342706;28;63613;-69
2021/06/04 01:00:55;;;;;;;25.45;19.75;;;;;;;;;;344844;28;41461;-69
2021/06/04 01:01:08;;;;;;;25.30;19.55;;;;;;;;;;345593;28;18039;-69
2021/06/04 01:01:21;;;;;;;26.35;19.90;;;;;;;;;;347675;28;974;-69
2021/06/04 01:01:34;;;;;;;26.75;19.55;;;;;;;;;;347625;28;1305;-69
2021/06/04 01:01:47;;;;;;;26.52;19.45;;;;;;;;;;347092;28;17132;-69
2021/06/04 01:01:59;;;;;;;26.45;19.38;;;;;;;;;;347681;28;1094;-69
2021/06/04 01:02:14;;;;;;;25.95;19.20;;;;;;;;;;347625;28;1188;-69
2021/06/04 01:02:26;;;;;;;25.27;19.10;;;;;;;;;;346315;28;39772;-69
2021/06/04 01:02:40;;;;;;;24.77;19.20;;;;;;;;;;347780;28;2265;-68
2021/06/04 01:02:53;;;;;;;24.17;19.23;;;;;;;;;;347228;28;18022;-69
2021/06/04 01:03:08;;;;;;;26.40;19.63;;;;;;;;;;347196;28;17110;-69
2021/06/04 01:03:22;;;;;;;26.77;19.52;;;;;;;;;;347479;28;1206;-68
2021/06/04 01:03:36;;;;;;;24.45;19.00;;;;;;;;;;346104;28;41213;-69
2021/06/04 01:03:51;;;;;;;24.30;19.33;;;;;;;;;;347008;28;16067;-69
2021/06/04 01:04:06;;;;;;;24.55;19.45;;;;;;;;;;346270;28;40132;-69
2021/06/04 01:04:19;;;;;;;25.63;18.70;;;;;;;;;;347120;28;16853;-69
2021/06/04 01:04:31;;;;;;;25.55;18.10;;;;;;;;;;346076;28;1033;-69
2021/06/04 01:04:44;;;;;;;24.88;17.90;;;;;;;;;;346168;28;1098;-69
2021/06/04 01:04:57;;;;;;;21.13;17.98;;;;;;;;;;346207;28;1067;-69
2021/06/04 01:05:10;;;;;;;21.02;18.15;;;;;;;;;;346139;28;1188;-69
2021/06/04 01:05:23;;;;;;;22.33;18.08;;;;;;;;;;346262;28;1110;-69
2021/06/04 01:05:37;;;;;;;23.15;18.40;;;;;;;;;;346246;28;1481;-69
2021/06/04 01:05:49;;;;;;;23.60;18.26;;;;;;;;;;345750;28;16711;-70
2021/06/04 01:06:13;;;;;;;22.80;18.00;;;;;;;;;;346141;28;1102;-69
2021/06/04 01:06:41;;;;;;;21.73;17.83;;;;;;;;;;344132;28;62347;-69
2021/06/04 01:06:59;;;;;;;22.92;17.90;;;;;;;;;;345423;28;62187;-68
2021/06/04 01:07:31;;;;;;;22.00;15.85;;;;;;;;;;344126;28;63913;-69
2021/06/04 01:07:43;;;;;;;17.30;11.38;;;;;;;;;;344078;28;64601;-68
2021/06/04 01:08:15;;;;;;;19.35;12.45;;;;;;;;;;346030;28;1169;-69
2021/06/04 01:08:46;;;;;;;22.88;13.68;;;;;;;;;;338411;29;64607;-69
2021/06/04 01:09:24;;;;;;;16.10;11.93;;;;;;;;;;338561;29;63808;-69
2021/06/04 01:09:46;;;;;;;15.55;11.85;;;;;;;;;;337351;29;64363;-69
2021/06/04 01:10:07;;;;;;;16.80;13.02;;;;;;;;;;337267;29;64389;-69
2021/06/04 01:10:19;;;;;;;17.95;12.60;;;;;;;;;;337570;29;64685;-71
2021/06/04 01:10:31;;;;;;;19.70;13.75;;;;;;;;;;341603;28;1334;-69
2021/06/04 01:10:43;;;;;;;22.58;16.00;;;;;;;;;;342263;28;1067;-69
2021/06/04 01:11:18;;;;;;;23.30;16.42;;;;;;;;;;342075;28;1110;-69
2021/06/04 01:11:33;;;;;;;26.98;19.40;;;;;;;;;;339977;28;64294;-69
2021/06/04 01:12:03;;;;;;;27.25;19.08;;;;;;;;;;340790;28;41297;-69
2021/06/04 01:12:24;;;;;;;23.83;18.48;;;;;;;;;;340050;28;64586;-69
2021/06/04 01:12:49;;;;;;;25.25;18.73;;;;;;;;;;340202;28;63265;-69
2021/06/04 01:13:06;;;;;;;22.85;18.63;;;;;;;;;;339948;28;64839;-69
2021/06/04 01:13:31;;;;;;;23.77;18.73;;;;;;;;;;340085;28;63730;-69
2021/06/04 01:13:43;;;;;;;23.60;18.63;;;;;;;;;;338637;29;62981;-69
2021/06/04 01:14:14;;;;;;;22.77;18.50;;;;;;;;;;340707;28;1162;-69
2021/06/04 01:14:34;;;;;;;23.98;18.38;;;;;;;;;;337808;29;87219;-69
2021/06/04 01:14:46;;;;;;;23.85;17.33;;;;;;;;;;338728;29;64029;-69
2021/06/04 01:15:02;;;;;;;23.85;17.48;;;;;;;;;;340534;29;1144;-69
2021/06/04 01:15:33;;;;;;;24.35;18.05;;;;;;;;;;339555;29;40028;-70
2021/06/04 01:15:57;;;;;;;24.95;18.25;;;;;;;;;;339600;28;64761;-69
2021/06/04 01:16:09;;;;;;;25.15;18.83;;;;;;;;;;340143;28;64274;-70
2021/06/04 01:16:22;;;;;;;24.25;19.05;;;;;;;;;;342174;28;2292;-70
2021/06/04 01:16:45;;;;;;;24.70;18.83;;;;;;;;;;341224;28;18523;-69
2021/06/04 01:17:09;;;;;;;24.58;18.38;;;;;;;;;;339929;28;63673;-70
2021/06/04 01:17:27;;;;;;;25.25;18.67;;;;;;;;;;340006;28;62255;-69
2021/06/04 01:17:42;;;;;;;22.92;18.48;;;;;;;;;;340090;28;63871;-69
2021/06/04 01:17:58;;;;;;;24.63;19.27;;;;;;;;;;340941;28;40811;-70
2021/06/04 01:18:23;;;;;;;25.83;19.65;;;;;;;;;;340056;28;63650;-69
2021/06/04 01:18:47;;;;;;;23.80;19.05;;;;;;;;;;339974;28;63280;-69
2021/06/04 01:19:02;;;;;;;23.48;19.15;;;;;;;;;;340050;28;64341;-70
2021/06/04 01:19:28;;;;;;;24.05;19.25;;;;;;;;;;340822;28;41061;-70
2021/06/04 01:19:43;;;;;;;25.13;18.42;;;;;;;;;;339993;28;62632;-69
2021/06/04 01:19:58;;;;;;;25.00;17.92;;;;;;;;;;339574;29;40192;-70
2021/06/04 01:20:15;;;;;;;24.95;18.02;;;;;;;;;;338854;29;64074;-70
2021/06/04 01:20:48;;;;;;;25.20;18.33;;;;;;;;;;338758;29;63060;-69
2021/06/04 01:21:18;;;;;;;22.20;17.02;;;;;;;;;;338578;29;62880;-69
2021/06/04 01:21:37;;;;;;;21.40;18.00;;;;;;;;;;337099;29;63170;-69
2021/06/04 01:21:53;;;;;;;20.58;17.95;;;;;;;;;;338530;28;64644;-69
2021/06/04 01:22:10;;;;;;;22.75;18.10;;;;;;;;;;339940;28;64115;-69
2021/06/04 01:22:28;;;;;;;24.67;18.27;;;;;;;;;;339934;28;63000;-70
2021/06/04 01:22:54;;;;;;;24.60;18.08;;;;;;;;;;340084;28;64073;-69
2021/06/04 01:23:27;;;;;;;24.00;17.75;;;;;;;;;;339775;28;64800;-69
2021/06/04 01:24:05;;;;;;;25.48;18.48;;;;;;;;;;338590;29;64618;-68
2021/06/04 01:24:41;;;;;;;22.73;17.77;;;;;;;;;;337216;29;62311;-69
2021/06/04 01:24:53;;;;;;;20.30;16.98;;;;;;;;;;335116;29;63922;-70
2021/06/04 01:25:28;;;;;;;21.23;16.58;;;;;;;;;;336837;29;1182;-70
2021/06/04 01:25:58;;;;;;;19.67;16.65;;;;;;;;;;331149;29;64641;-68
2021/06/04 01:26:23;;;;;;;20.15;16.92;;;;;;;;;;331318;29;64670;-70
2021/06/04 01:26:37;;;;;;;21.70;16.90;;;;;;;;;;329968;29;64518;-69
2021/06/04 01:27:02;;;;;;;21.15;16.58;;;;;;;;;;331842;29;16695;-69
2021/06/04 01:27:20;;;;;;;22.10;16.58;;;;;;;;;;330015;29;64804;-69
2021/06/04 01:27:34;;;;;;;19.92;16.52;;;;;;;;;;330139;29;64929;-69
2021/06/04 01:27:48;;;;;;;21.28;16.08;;;;;;;;;;331681;29;17726;-69
2021/06/04 01:28:03;;;;;;;24.05;15.93;;;;;;;;;;332221;29;1539;-70
2021/06/04 01:28:18;;;;;;;22.25;15.60;;;;;;;;;;330964;29;40136;-70
2021/06/04 01:28:33;;;;;;;19.60;15.35;;;;;;;;;;331341;29;64202;-69
2021/06/04 01:28:47;;;;;;;21.00;15.25;;;;;;;;;;332692;29;16605;-69
2021/06/04 01:29:04;;;;;;;22.05;15.43;;;;;;;;;;331976;29;39591;-71
2021/06/04 01:29:20;;;;;;;21.95;15.85;;;;;;;;;;331223;29;62652;-69
2021/06/04 01:29:36;;;;;;;21.88;16.25;;;;;;;;;;331260;29;64041;-70
2021/06/04 01:29:55;;;;;;;21.88;16.13;;;;;;;;;;331114;29;62916;-70
2021/06/04 01:30:08;;;;;;;22.33;15.68;;;;;;;;;;331398;29;63628;-68
2021/06/04 01:30:20;;;;;;;20.65;15.20;;;;;;;;;;333224;29;1187;-69